createdAt,value
2024-01-11T00:00:30.562Z,81.28
2024-01-11T00:01:21.572Z,80.85
2024-01-11T00:02:12.438Z,80.91
2024-01-11T00:03:03.392Z,80.97
2024-01-11T00:03:54.213Z,80.88
2024-01-11T00:04:45.265Z,80.24
2024-01-11T00:05:36.269Z,80.74
2024-01-11T00:06:27.316Z,81.02
2024-01-11T00:07:18.259Z,81.33
2024-01-11T00:08:09.352Z,81.34
2024-01-11T00:09:00.070Z,81.53
2024-01-11T00:09:50.858Z,81.41
2024-01-11T00:10:41.752Z,81.43
2024-01-11T00:11:32.817Z,81.34
2024-01-11T00:12:26.031Z,81.66
2024-01-11T00:13:17.041Z,81.40
2024-01-11T00:14:08.129Z,81.33
2024-01-11T00:15:00.202Z,81.48
2024-01-11T00:15:51.473Z,81.22
2024-01-11T00:16:42.928Z,81.26
2024-01-11T00:17:34.040Z,81.07
2024-01-11T00:18:25.198Z,81.11
2024-01-11T00:19:15.954Z,81.00
2024-01-11T00:20:07.732Z,80.62
2024-01-11T00:20:58.523Z,80.75
2024-01-11T00:21:49.396Z,80.94
2024-01-11T00:22:40.417Z,80.62
2024-01-11T00:23:31.429Z,80.60
2024-01-11T00:24:22.264Z,80.78
2024-01-11T00:25:13.153Z,80.31
2024-01-11T00:26:04.036Z,80.52
2024-01-11T00:26:55.031Z,80.13
2024-01-11T00:27:45.873Z,80.11
2024-01-11T00:28:36.818Z,80.59
2024-01-11T00:29:27.674Z,80.52
2024-01-11T00:30:18.881Z,80.78
2024-01-11T00:31:09.954Z,80.87
2024-01-11T00:32:00.753Z,80.72
2024-01-11T00:32:51.643Z,80.79
2024-01-11T00:33:42.470Z,80.81
2024-01-11T00:34:33.686Z,80.80
2024-01-11T00:35:24.841Z,80.48
2024-01-11T00:36:21.142Z,80.37
2024-01-11T00:37:12.152Z,80.40
2024-01-11T00:38:02.976Z,80.11
2024-01-11T00:38:53.606Z,80.21
2024-01-11T00:39:45.046Z,79.99
2024-01-11T00:40:35.462Z,80.15
2024-01-11T00:41:26.710Z,79.88
2024-01-11T00:42:17.605Z,80.48
2024-01-11T00:43:08.423Z,80.23
2024-01-11T00:43:59.334Z,80.58
2024-01-11T00:44:50.791Z,80.42
2024-01-11T00:45:42.018Z,80.38
2024-01-11T00:46:33.398Z,80.52
2024-01-11T00:47:24.121Z,80.44
2024-01-11T00:48:15.228Z,80.98
2024-01-11T00:49:06.225Z,81.07
2024-01-11T00:49:57.104Z,81.61
2024-01-11T00:50:48.421Z,82.06
2024-01-11T00:51:39.255Z,82.20
2024-01-11T00:52:30.118Z,82.26
2024-01-11T00:53:21.449Z,82.08
2024-01-11T00:54:12.506Z,82.52
2024-01-11T00:55:03.741Z,82.81
2024-01-11T00:55:54.452Z,82.79
2024-01-11T00:56:45.108Z,82.66
2024-01-11T00:57:36.038Z,82.26
2024-01-11T00:58:27.199Z,81.97
2024-01-11T00:59:17.879Z,81.41
2024-01-11T01:00:11.033Z,81.55
2024-01-11T01:01:02.215Z,81.88
2024-01-11T01:01:52.979Z,81.51
2024-01-11T01:02:44.009Z,81.39
2024-01-11T01:03:34.755Z,81.79
2024-01-11T01:04:25.742Z,81.43
2024-01-11T01:05:17.459Z,81.81
2024-01-11T01:06:08.793Z,81.28
2024-01-11T01:06:59.831Z,81.27
2024-01-11T01:07:50.925Z,81.27
2024-01-11T01:08:41.759Z,81.92
2024-01-11T01:09:32.961Z,81.91
2024-01-11T01:10:24.899Z,82.57
2024-01-11T01:11:16.101Z,82.75
2024-01-11T01:12:07.826Z,82.07
2024-01-11T01:12:58.624Z,82.52
2024-01-11T01:13:49.504Z,82.74
2024-01-11T01:14:40.592Z,82.55
2024-01-11T01:15:31.615Z,82.25
2024-01-11T01:16:22.273Z,82.64
2024-01-11T01:17:16.047Z,81.90
2024-01-11T01:18:08.217Z,81.73
2024-01-11T01:18:59.743Z,81.44
2024-01-11T01:19:50.540Z,81.06
2024-01-11T01:20:41.725Z,81.31
2024-01-11T01:21:32.337Z,81.08
2024-01-11T01:22:23.458Z,80.80
2024-01-11T01:23:14.553Z,80.69
2024-01-11T01:24:05.665Z,80.72
2024-01-11T01:24:56.429Z,80.78
2024-01-11T01:25:47.231Z,81.01
2024-01-11T01:26:38.381Z,81.08
2024-01-11T01:27:29.090Z,80.73
2024-01-11T01:28:20.281Z,80.78
2024-01-11T01:29:11.213Z,80.65
2024-01-11T01:30:02.506Z,80.57
2024-01-11T01:30:53.186Z,81.49
2024-01-11T01:31:44.098Z,81.23
2024-01-11T01:32:36.089Z,81.69
2024-01-11T01:33:26.981Z,81.69
2024-01-11T01:34:17.866Z,81.54
2024-01-11T01:35:09.113Z,81.64
2024-01-11T01:36:00.174Z,82.02
2024-01-11T01:36:51.069Z,82.09
2024-01-11T01:37:42.029Z,81.98
2024-01-11T01:38:33.235Z,82.54
2024-01-11T01:39:24.115Z,82.65
2024-01-11T01:40:14.903Z,82.36
2024-01-11T01:41:05.928Z,82.52
2024-01-11T01:41:56.635Z,82.53
2024-01-11T01:42:47.904Z,82.75
2024-01-11T01:43:38.673Z,83.25
2024-01-11T01:44:29.908Z,83.04
2024-01-11T01:45:20.524Z,83.18
2024-01-11T01:46:11.736Z,83.28
2024-01-11T01:47:05.425Z,83.17
2024-01-11T01:47:57.005Z,83.02
2024-01-11T01:48:48.199Z,83.30
2024-01-11T01:49:40.110Z,83.16
2024-01-11T01:50:32.117Z,83.19
2024-01-11T01:51:23.957Z,83.17
2024-01-11T01:52:15.463Z,83.61
2024-01-11T01:53:08.127Z,83.31
2024-01-11T01:54:01.131Z,83.34
2024-01-11T01:54:52.066Z,83.09
2024-01-11T01:55:42.839Z,82.85
2024-01-11T01:56:33.977Z,82.48
2024-01-11T01:57:26.324Z,82.52
2024-01-11T01:58:19.165Z,82.14
2024-01-11T01:59:11.858Z,81.75
2024-01-11T02:00:03.645Z,82.03
2024-01-11T02:01:03.115Z,82.02
2024-01-11T02:01:54.012Z,82.47
2024-01-11T02:02:46.706Z,82.34
2024-01-11T02:03:38.261Z,82.43
2024-01-11T02:04:29.333Z,82.47
2024-01-11T02:05:20.284Z,82.50
2024-01-11T02:06:11.208Z,82.51
2024-01-11T02:07:03.154Z,82.13
2024-01-11T02:07:54.029Z,81.96
2024-01-11T02:08:46.724Z,82.21
2024-01-11T02:09:38.157Z,82.52
2024-01-11T02:10:29.883Z,82.27
2024-01-11T02:11:22.572Z,82.38
2024-01-11T02:12:14.085Z,82.64
2024-01-11T02:13:08.326Z,82.96
2024-01-11T02:14:01.397Z,83.09
2024-01-11T02:14:54.671Z,83.36
2024-01-11T02:15:46.538Z,83.30
2024-01-11T02:16:38.265Z,83.46
2024-01-11T02:17:29.091Z,82.89
2024-01-11T02:18:19.958Z,82.69
2024-01-11T02:19:14.502Z,83.02
2024-01-11T02:20:06.224Z,82.92
2024-01-11T02:20:57.874Z,83.34
2024-01-11T02:21:54.222Z,83.18
2024-01-11T02:22:51.201Z,83.43
2024-01-11T02:23:50.449Z,83.03
2024-01-11T02:24:41.369Z,82.66
2024-01-11T02:25:32.017Z,82.22
2024-01-11T02:26:23.727Z,81.73
2024-01-11T02:27:14.754Z,81.75
2024-01-11T02:28:05.444Z,81.66
2024-01-11T02:28:56.158Z,81.79
2024-01-11T02:29:46.934Z,81.33
2024-01-11T02:30:38.297Z,81.51
2024-01-11T02:31:29.416Z,81.49
2024-01-11T02:32:21.075Z,81.63
2024-01-11T02:33:17.074Z,81.40
2024-01-11T02:34:08.459Z,82.19
2024-01-11T02:34:59.808Z,82.23
2024-01-11T02:35:51.816Z,82.58
2024-01-11T02:36:42.600Z,82.77
2024-01-11T02:37:34.094Z,82.93
2024-01-11T02:38:24.866Z,83.00
2024-01-11T02:39:18.068Z,83.29
2024-01-11T02:40:09.783Z,83.56
2024-01-11T02:41:01.269Z,83.31
2024-01-11T02:41:54.472Z,83.41
2024-01-11T02:42:45.399Z,83.87
2024-01-11T02:43:38.716Z,83.47
2024-01-11T02:44:29.361Z,83.26
2024-01-11T02:45:20.306Z,83.04
2024-01-11T02:46:11.262Z,82.15
2024-01-11T02:47:02.085Z,81.86
2024-01-11T02:47:53.218Z,81.45
2024-01-11T02:48:44.038Z,81.38
2024-01-11T02:49:34.661Z,81.15
2024-01-11T02:50:25.566Z,80.75
2024-01-11T02:51:16.632Z,80.43
2024-01-11T02:52:07.248Z,80.49
2024-01-11T02:52:58.173Z,80.63
2024-01-11T02:53:49.644Z,80.58
2024-01-11T02:54:40.599Z,80.47
2024-01-11T02:55:31.472Z,80.55
2024-01-11T02:56:22.548Z,80.27
2024-01-11T02:57:13.313Z,80.19
2024-01-11T02:58:04.314Z,80.25
2024-01-11T02:58:54.906Z,80.23
2024-01-11T02:59:45.725Z,80.20
2024-01-11T03:00:36.783Z,80.10
2024-01-11T03:01:27.688Z,79.94
2024-01-11T03:02:18.880Z,80.04
2024-01-11T03:03:12.486Z,80.06
2024-01-11T03:04:03.504Z,80.03
2024-01-11T03:04:54.752Z,80.06
2024-01-11T03:05:45.825Z,80.18
2024-01-11T03:06:36.674Z,80.36
2024-01-11T03:07:27.710Z,80.48
2024-01-11T03:08:18.676Z,80.87
2024-01-11T03:09:09.596Z,80.68
2024-01-11T03:10:00.382Z,81.01
2024-01-11T03:10:51.434Z,81.15
2024-01-11T03:11:42.516Z,81.18
2024-01-11T03:12:33.427Z,81.59
2024-01-11T03:13:24.549Z,81.77
2024-01-11T03:14:15.196Z,81.95
2024-01-11T03:15:06.402Z,82.44
2024-01-11T03:15:58.503Z,82.57
2024-01-11T03:16:49.325Z,82.43
2024-01-11T03:17:40.295Z,82.81
2024-01-11T03:18:32.448Z,82.95
2024-01-11T03:19:23.740Z,83.46
2024-01-11T03:20:14.650Z,83.19
2024-01-11T03:21:05.423Z,83.11
2024-01-11T03:21:56.319Z,83.17
2024-01-11T03:22:47.985Z,83.29
2024-01-11T03:23:38.715Z,83.40
2024-01-11T03:24:30.499Z,83.40
2024-01-11T03:25:21.475Z,83.19
2024-01-11T03:26:18.994Z,83.17
2024-01-11T03:27:09.941Z,83.51
2024-01-11T03:28:00.728Z,83.47
2024-01-11T03:28:51.393Z,83.30
2024-01-11T03:29:42.919Z,83.00
2024-01-11T03:30:33.752Z,83.17
2024-01-11T03:31:24.588Z,83.00
2024-01-11T03:32:15.733Z,83.28
2024-01-11T03:33:07.049Z,83.54
2024-01-11T03:33:58.602Z,83.73
2024-01-11T03:34:49.571Z,83.95
2024-01-11T03:35:41.543Z,84.12
2024-01-11T03:36:32.329Z,84.08
2024-01-11T03:37:23.073Z,84.12
2024-01-11T03:38:13.947Z,84.37
2024-01-11T03:39:04.726Z,84.36
2024-01-11T03:39:55.577Z,84.07
2024-01-11T03:40:46.539Z,84.28
2024-01-11T03:41:37.303Z,83.96
2024-01-11T03:42:28.237Z,84.14
2024-01-11T03:43:19.356Z,84.17
2024-01-11T03:44:10.578Z,83.85
2024-01-11T03:45:01.412Z,83.91
2024-01-11T03:45:52.328Z,84.27
2024-01-11T03:46:43.074Z,84.16
2024-01-11T03:47:34.005Z,83.82
2024-01-11T03:48:24.702Z,83.61
2024-01-11T03:49:15.570Z,83.35
2024-01-11T03:50:06.717Z,83.20
2024-01-11T03:50:57.670Z,83.26
2024-01-11T03:51:48.567Z,83.19
2024-01-11T03:52:40.704Z,83.40
2024-01-11T03:53:35.430Z,83.25
2024-01-11T03:54:26.413Z,83.14
2024-01-11T03:55:17.166Z,83.42
2024-01-11T03:56:07.988Z,83.09
2024-01-11T03:56:58.867Z,83.16
2024-01-11T03:57:50.139Z,82.56
2024-01-11T03:58:42.818Z,82.29
2024-01-11T03:59:33.783Z,82.18
2024-01-11T04:00:24.872Z,81.73
2024-01-11T04:01:15.993Z,81.02
2024-01-11T04:02:06.894Z,80.42
2024-01-11T04:02:57.904Z,79.96
2024-01-11T04:03:49.040Z,79.54
2024-01-11T04:04:39.986Z,79.31
2024-01-11T04:05:30.803Z,78.94
2024-01-11T04:06:23.134Z,78.79
2024-01-11T04:07:14.085Z,79.05
2024-01-11T04:08:07.113Z,78.98
2024-01-11T04:08:58.191Z,79.41
2024-01-11T04:09:49.192Z,79.44
2024-01-11T04:10:40.133Z,79.20
2024-01-11T04:11:31.501Z,78.93
2024-01-11T04:12:22.605Z,79.12
2024-01-11T04:13:13.931Z,79.47
2024-01-11T04:14:04.471Z,79.09
2024-01-11T04:14:55.190Z,79.37
2024-01-11T04:15:46.304Z,79.48
2024-01-11T04:16:42.159Z,79.57
2024-01-11T04:17:33.165Z,79.93
2024-01-11T04:18:24.254Z,80.07
2024-01-11T04:19:15.190Z,80.34
2024-01-11T04:20:07.997Z,80.12
2024-01-11T04:20:59.306Z,80.38
2024-01-11T04:21:50.199Z,80.42
2024-01-11T04:22:40.939Z,80.58
2024-01-11T04:23:31.896Z,80.34
2024-01-11T04:24:22.970Z,80.57
2024-01-11T04:25:13.803Z,80.30
2024-01-11T04:26:04.589Z,80.07
2024-01-11T04:26:55.325Z,80.63
2024-01-11T04:27:46.202Z,80.40
2024-01-11T04:28:38.230Z,80.71
2024-01-11T04:29:28.986Z,80.82
2024-01-11T04:30:19.703Z,80.91
2024-01-11T04:31:11.019Z,80.67
2024-01-11T04:32:02.764Z,80.83
2024-01-11T04:32:53.886Z,80.09
2024-01-11T04:33:46.236Z,80.30
2024-01-11T04:34:37.199Z,80.61
2024-01-11T04:35:27.994Z,80.65
2024-01-11T04:36:18.975Z,80.38
2024-01-11T04:37:10.152Z,80.27
2024-01-11T04:38:01.096Z,80.58
2024-01-11T04:38:51.856Z,80.47
2024-01-11T04:39:42.713Z,80.53
2024-01-11T04:40:33.687Z,80.82
2024-01-11T04:41:24.652Z,80.81
2024-01-11T04:42:15.754Z,80.57
2024-01-11T04:43:08.717Z,80.67
2024-01-11T04:43:59.794Z,80.58
2024-01-11T04:44:50.530Z,80.59
2024-01-11T04:45:41.202Z,80.38
2024-01-11T04:46:32.219Z,80.74
2024-01-11T04:47:23.119Z,80.82
2024-01-11T04:48:14.715Z,80.95
2024-01-11T04:49:05.856Z,81.08
2024-01-11T04:49:56.889Z,80.69
2024-01-11T04:50:50.061Z,80.90
2024-01-11T04:51:41.068Z,80.82
2024-01-11T04:52:31.924Z,81.08
2024-01-11T04:53:22.824Z,81.14
2024-01-11T04:54:13.652Z,80.78
2024-01-11T04:55:04.826Z,80.70
2024-01-11T04:55:55.705Z,80.86
2024-01-11T04:56:46.587Z,81.10
2024-01-11T04:57:37.372Z,80.86
2024-01-11T04:58:30.572Z,80.96
2024-01-11T04:59:21.189Z,80.93
2024-01-11T05:00:12.465Z,81.03
2024-01-11T05:01:03.573Z,81.11
2024-01-11T05:01:54.600Z,81.08
2024-01-11T05:02:46.027Z,81.37
2024-01-11T05:03:37.221Z,81.78
2024-01-11T05:04:28.113Z,82.00
2024-01-11T05:05:19.242Z,82.44
2024-01-11T05:06:19.580Z,82.47
2024-01-11T05:07:10.873Z,82.46
2024-01-11T05:08:01.683Z,82.71
2024-01-11T05:08:53.828Z,83.54
2024-01-11T05:09:44.673Z,83.58
2024-01-11T05:10:37.341Z,83.65
2024-01-11T05:11:30.521Z,83.85
2024-01-11T05:12:21.541Z,83.87
2024-01-11T05:13:12.302Z,83.68
2024-01-11T05:14:03.168Z,83.71
2024-01-11T05:14:54.129Z,83.62
2024-01-11T05:15:45.251Z,83.53
2024-01-11T05:16:36.956Z,83.61
2024-01-11T05:17:28.287Z,83.56
2024-01-11T05:18:19.447Z,83.39
2024-01-11T05:19:10.264Z,83.63
2024-01-11T05:20:01.024Z,82.93
2024-01-11T05:20:52.088Z,82.96
2024-01-11T05:21:42.997Z,82.78
2024-01-11T05:22:33.855Z,83.15
2024-01-11T05:23:24.759Z,83.03
2024-01-11T05:24:15.613Z,83.40
2024-01-11T05:25:06.656Z,83.41
2024-01-11T05:25:57.768Z,83.58
2024-01-11T05:26:48.719Z,83.53
2024-01-11T05:27:39.433Z,83.88
2024-01-11T05:28:30.369Z,83.73
2024-01-11T05:29:21.546Z,83.53
2024-01-11T05:30:13.784Z,83.35
2024-01-11T05:31:07.580Z,83.16
2024-01-11T05:31:58.607Z,83.25
2024-01-11T05:32:49.436Z,83.18
2024-01-11T05:33:40.680Z,83.61
2024-01-11T05:34:31.710Z,83.30
2024-01-11T05:35:25.218Z,83.32
2024-01-11T05:36:16.384Z,83.54
2024-01-11T05:37:07.210Z,83.28
2024-01-11T05:37:58.018Z,83.16
2024-01-11T05:38:49.321Z,83.32
2024-01-11T05:39:40.223Z,83.17
2024-01-11T05:40:31.593Z,83.24
2024-01-11T05:41:22.667Z,82.99
2024-01-11T05:42:13.877Z,82.94
2024-01-11T05:43:04.953Z,82.60
2024-01-11T05:43:55.981Z,82.75
2024-01-11T05:44:47.149Z,82.29
2024-01-11T05:45:47.231Z,82.05
2024-01-11T05:46:39.370Z,81.83
2024-01-11T05:47:30.145Z,81.69
2024-01-11T05:48:21.005Z,81.23
2024-01-11T05:49:11.839Z,80.92
2024-01-11T05:50:03.157Z,80.68
2024-01-11T05:50:54.689Z,80.30
2024-01-11T05:51:45.422Z,80.03
2024-01-11T05:52:36.155Z,80.33
2024-01-11T05:53:28.706Z,80.15
2024-01-11T05:54:19.724Z,80.06
2024-01-11T05:55:10.529Z,80.27
2024-01-11T05:56:01.475Z,80.00
2024-01-11T05:56:57.025Z,80.01
2024-01-11T05:57:48.134Z,80.50
2024-01-11T05:58:40.233Z,80.61
2024-01-11T05:59:30.950Z,80.77
2024-01-11T06:00:21.970Z,80.72
2024-01-11T06:01:13.414Z,80.74
2024-01-11T06:02:04.687Z,81.08
2024-01-11T06:02:55.596Z,80.75
2024-01-11T06:03:47.004Z,80.99
2024-01-11T06:04:38.268Z,81.18
2024-01-11T06:05:29.495Z,80.90
2024-01-11T06:06:20.516Z,81.31
2024-01-11T06:07:11.562Z,81.22
2024-01-11T06:08:02.775Z,81.27
2024-01-11T06:08:53.685Z,81.42
2024-01-11T06:09:44.657Z,81.55
2024-01-11T06:10:35.922Z,81.66
2024-01-11T06:11:26.764Z,81.46
2024-01-11T06:12:18.415Z,81.32
2024-01-11T06:13:10.779Z,81.65
2024-01-11T06:14:02.665Z,81.70
2024-01-11T06:14:53.449Z,81.63
2024-01-11T06:15:44.460Z,81.65
2024-01-11T06:16:35.190Z,82.09
2024-01-11T06:17:26.066Z,82.05
2024-01-11T06:18:17.868Z,81.74
2024-01-11T06:19:11.162Z,81.80
2024-01-11T06:20:02.969Z,81.96
2024-01-11T06:20:53.870Z,81.09
2024-01-11T06:21:44.929Z,81.41
2024-01-11T06:22:35.746Z,81.06
2024-01-11T06:23:26.946Z,81.61
2024-01-11T06:24:20.368Z,81.46
2024-01-11T06:25:10.995Z,81.50
2024-01-11T06:26:02.101Z,81.25
2024-01-11T06:26:52.826Z,80.96
2024-01-11T06:27:44.814Z,81.12
2024-01-11T06:28:36.611Z,80.91
2024-01-11T06:29:27.974Z,81.01
2024-01-11T06:30:18.926Z,81.17
2024-01-11T06:31:13.345Z,81.34
2024-01-11T06:32:04.390Z,81.70
2024-01-11T06:32:55.577Z,81.73
2024-01-11T06:33:49.159Z,81.88
2024-01-11T06:34:46.680Z,81.64
2024-01-11T06:35:37.588Z,81.90
2024-01-11T06:36:28.405Z,82.17
2024-01-11T06:37:19.202Z,82.50
2024-01-11T06:38:10.109Z,82.32
2024-01-11T06:39:00.960Z,82.23
2024-01-11T06:39:51.844Z,82.35
2024-01-11T06:40:42.817Z,82.20
2024-01-11T06:41:33.698Z,82.07
2024-01-11T06:42:24.473Z,81.99
2024-01-11T06:43:16.093Z,81.68
2024-01-11T06:44:07.238Z,81.83
2024-01-11T06:44:58.314Z,81.42
2024-01-11T06:45:49.154Z,81.83
2024-01-11T06:46:42.582Z,81.46
2024-01-11T06:47:33.914Z,81.68
2024-01-11T06:48:24.824Z,81.48
2024-01-11T06:49:15.702Z,80.91
2024-01-11T06:50:07.199Z,80.98
2024-01-11T06:51:01.650Z,81.11
2024-01-11T06:51:52.902Z,81.17
2024-01-11T06:52:44.097Z,80.93
2024-01-11T06:53:34.814Z,80.76
2024-01-11T06:54:25.666Z,80.87
2024-01-11T06:55:16.567Z,81.01
2024-01-11T06:56:17.215Z,81.20
2024-01-11T06:57:07.976Z,81.33
2024-01-11T06:58:03.008Z,80.99
2024-01-11T06:58:53.839Z,80.97
2024-01-11T06:59:47.481Z,80.56
2024-01-11T07:00:44.168Z,80.75
2024-01-11T07:01:34.966Z,80.74
2024-01-11T07:02:26.488Z,80.70
2024-01-11T07:03:18.758Z,80.90
2024-01-11T07:04:09.738Z,80.76
2024-01-11T07:05:00.750Z,80.75
2024-01-11T07:05:51.734Z,80.81
2024-01-11T07:06:42.624Z,80.86
2024-01-11T07:07:34.018Z,80.63
2024-01-11T07:08:24.848Z,80.65
2024-01-11T07:09:17.677Z,81.09
2024-01-11T07:10:09.899Z,80.76
2024-01-11T07:11:04.070Z,81.01
2024-01-11T07:11:54.943Z,80.72
2024-01-11T07:12:46.942Z,80.54
2024-01-11T07:13:37.636Z,80.33
2024-01-11T07:14:28.663Z,80.18
2024-01-11T07:15:19.518Z,79.82
2024-01-11T07:16:12.378Z,80.07
2024-01-11T07:17:05.250Z,80.01
2024-01-11T07:17:56.183Z,79.92
2024-01-11T07:18:46.927Z,79.65
2024-01-11T07:19:38.101Z,79.38
2024-01-11T07:20:29.314Z,79.38
2024-01-11T07:21:30.866Z,79.38
2024-01-11T07:22:21.620Z,79.39
2024-01-11T07:23:12.461Z,79.65
2024-01-11T07:24:03.446Z,79.38
2024-01-11T07:24:54.306Z,78.92
2024-01-11T07:25:45.434Z,78.62
2024-01-11T07:26:35.996Z,78.47
2024-01-11T07:27:26.997Z,78.15
2024-01-11T07:28:18.578Z,78.21
2024-01-11T07:29:09.368Z,77.96
2024-01-11T07:30:00.176Z,78.06
2024-01-11T07:30:51.116Z,78.22
2024-01-11T07:31:42.031Z,78.49
2024-01-11T07:32:33.061Z,78.28
2024-01-11T07:33:24.096Z,78.06
2024-01-11T07:34:15.526Z,78.40
2024-01-11T07:35:12.211Z,78.25
2024-01-11T07:36:06.675Z,78.59
2024-01-11T07:36:57.953Z,78.45
2024-01-11T07:37:48.497Z,78.39
2024-01-11T07:38:39.765Z,78.45
2024-01-11T07:39:32.062Z,78.18
2024-01-11T07:40:22.650Z,78.55
2024-01-11T07:41:13.606Z,78.40
2024-01-11T07:42:04.604Z,78.60
2024-01-11T07:42:55.381Z,78.85
2024-01-11T07:43:53.551Z,78.25
2024-01-11T07:44:48.393Z,78.29
2024-01-11T07:45:39.263Z,78.02
2024-01-11T07:46:36.465Z,78.13
2024-01-11T07:47:33.911Z,78.29
2024-01-11T07:48:25.398Z,78.24
2024-01-11T07:49:16.561Z,78.47
2024-01-11T07:50:08.424Z,78.50
2024-01-11T07:51:00.834Z,78.13
2024-01-11T07:51:51.317Z,78.24
2024-01-11T07:52:42.788Z,78.02
2024-01-11T07:53:33.632Z,77.92
2024-01-11T07:54:24.450Z,77.96
2024-01-11T07:55:15.351Z,77.98
2024-01-11T07:56:06.463Z,77.93
2024-01-11T07:56:57.334Z,77.85
2024-01-11T07:57:48.142Z,78.14
2024-01-11T07:58:38.925Z,77.57
2024-01-11T07:59:34.117Z,76.80
2024-01-11T08:00:25.183Z,76.64
2024-01-11T08:01:17.298Z,76.10
2024-01-11T08:02:08.634Z,75.94
2024-01-11T08:02:59.719Z,76.03
2024-01-11T08:03:53.396Z,75.76
2024-01-11T08:04:46.294Z,75.63
2024-01-11T08:05:37.835Z,75.31
2024-01-11T08:06:28.652Z,74.86
2024-01-11T08:07:19.685Z,74.97
2024-01-11T08:08:10.634Z,75.36
2024-01-11T08:09:01.509Z,75.87
2024-01-11T08:09:52.426Z,75.82
2024-01-11T08:10:43.196Z,75.98
2024-01-11T08:11:36.566Z,76.28
2024-01-11T08:12:28.573Z,76.35
2024-01-11T08:13:22.417Z,76.24
2024-01-11T08:14:13.349Z,76.00
2024-01-11T08:15:04.507Z,75.63
2024-01-11T08:15:55.182Z,76.09
2024-01-11T08:16:46.114Z,76.61
2024-01-11T08:17:38.673Z,77.09
2024-01-11T08:18:30.647Z,77.06
2024-01-11T08:19:21.795Z,77.04
2024-01-11T08:20:13.034Z,77.31
2024-01-11T08:21:07.861Z,76.66
2024-01-11T08:22:00.754Z,76.42
2024-01-11T08:22:51.374Z,76.58
2024-01-11T08:23:46.723Z,76.59
2024-01-11T08:24:39.351Z,76.68
2024-01-11T08:25:30.211Z,76.68
2024-01-11T08:26:21.146Z,76.89
2024-01-11T08:27:11.907Z,76.83
2024-01-11T08:28:04.185Z,76.63
2024-01-11T08:28:54.978Z,76.94
2024-01-11T08:29:47.969Z,76.88
2024-01-11T08:30:38.857Z,76.52
2024-01-11T08:31:29.699Z,76.42
2024-01-11T08:32:28.709Z,76.07
2024-01-11T08:33:23.119Z,75.97
2024-01-11T08:34:14.120Z,75.73
2024-01-11T08:35:05.563Z,75.83
2024-01-11T08:35:56.887Z,75.70
2024-01-11T08:36:48.811Z,75.70
2024-01-11T08:37:40.427Z,76.03
2024-01-11T08:38:31.682Z,76.22
2024-01-11T08:39:24.074Z,75.94
2024-01-11T08:40:14.761Z,76.25
2024-01-11T08:41:05.773Z,76.00
2024-01-11T08:41:57.869Z,76.12
2024-01-11T08:42:48.932Z,76.16
2024-01-11T08:43:40.674Z,75.89
2024-01-11T08:44:32.028Z,75.11
2024-01-11T08:45:23.620Z,75.34
2024-01-11T08:46:24.635Z,75.57
2024-01-11T08:47:16.197Z,74.73
2024-01-11T08:48:07.623Z,74.25
2024-01-11T08:48:58.883Z,73.77
2024-01-11T08:49:50.339Z,73.98
2024-01-11T08:50:41.077Z,73.96
2024-01-11T08:51:33.352Z,74.24
2024-01-11T08:52:24.792Z,73.64
2024-01-11T08:53:18.667Z,73.82
2024-01-11T08:54:10.570Z,73.28
2024-01-11T08:55:01.061Z,73.17
2024-01-11T08:55:51.894Z,73.27
2024-01-11T08:56:43.577Z,72.53
2024-01-11T08:57:36.670Z,72.33
2024-01-11T08:58:27.929Z,72.51
2024-01-11T08:59:18.631Z,73.37
2024-01-11T09:00:10.172Z,72.86
2024-01-11T09:01:01.137Z,73.09
2024-01-11T09:01:57.796Z,73.19
2024-01-11T09:02:57.566Z,72.94
2024-01-11T09:03:49.309Z,72.75
2024-01-11T09:04:42.634Z,72.75
2024-01-11T09:05:33.759Z,72.71
2024-01-11T09:06:24.750Z,72.18
2024-01-11T09:07:16.836Z,72.44
2024-01-11T09:08:08.361Z,72.86
2024-01-11T09:08:59.468Z,73.56
2024-01-11T09:09:56.224Z,73.31
2024-01-11T09:10:48.336Z,72.60
2024-01-11T09:11:39.266Z,72.44
2024-01-11T09:12:30.042Z,72.08
2024-01-11T09:13:20.731Z,71.34
2024-01-11T09:14:12.560Z,72.38
2024-01-11T09:15:04.020Z,72.35
2024-01-11T09:15:55.188Z,73.03
2024-01-11T09:16:47.078Z,73.07
2024-01-11T09:17:39.000Z,71.95
2024-01-11T09:18:29.994Z,72.21
2024-01-11T09:19:20.745Z,72.16
2024-01-11T09:20:15.496Z,72.33
2024-01-11T09:21:06.531Z,71.35
2024-01-11T09:21:57.314Z,71.09
2024-01-11T09:22:48.391Z,70.62
2024-01-11T09:23:40.009Z,71.28
2024-01-11T09:24:35.029Z,71.13
2024-01-11T09:25:27.887Z,71.43
2024-01-11T09:26:18.698Z,71.25
2024-01-11T09:27:09.963Z,71.25
2024-01-11T09:28:01.022Z,71.13
2024-01-11T09:28:51.931Z,71.42
2024-01-11T09:29:46.902Z,71.87
2024-01-11T09:30:37.808Z,72.14
2024-01-11T09:31:28.833Z,71.67
2024-01-11T09:32:20.019Z,71.94
2024-01-11T09:33:10.867Z,72.39
2024-01-11T09:34:01.742Z,72.66
2024-01-11T09:34:52.453Z,72.52
2024-01-11T09:35:43.321Z,73.12
2024-01-11T09:36:34.380Z,73.09
2024-01-11T09:37:25.520Z,72.98
2024-01-11T09:38:16.391Z,73.32
2024-01-11T09:39:08.704Z,73.86
2024-01-11T09:40:01.871Z,73.17
2024-01-11T09:41:11.931Z,72.57
2024-01-11T09:42:11.119Z,72.25
2024-01-11T09:43:05.873Z,72.65
2024-01-11T09:44:00.124Z,73.02
2024-01-11T09:44:51.936Z,73.41
2024-01-11T09:45:43.095Z,72.76
2024-01-11T09:46:34.058Z,73.00
2024-01-11T09:47:26.309Z,72.98
2024-01-11T09:48:18.239Z,73.12
2024-01-11T09:49:11.130Z,72.92
2024-01-11T09:50:04.060Z,72.85
2024-01-11T09:50:57.285Z,72.31
2024-01-11T09:51:48.999Z,73.05
2024-01-11T09:52:40.761Z,72.42
2024-01-11T09:53:35.343Z,72.35
2024-01-11T09:54:27.282Z,72.59
2024-01-11T09:55:18.758Z,72.90
2024-01-11T09:56:10.685Z,72.83
2024-01-11T09:57:04.472Z,72.60
2024-01-11T09:57:58.848Z,72.44
2024-01-11T09:58:51.260Z,72.35
2024-01-11T09:59:43.677Z,72.52
2024-01-11T10:00:36.083Z,72.49
2024-01-11T10:01:27.506Z,72.75
2024-01-11T10:02:18.926Z,72.36
2024-01-11T10:03:10.637Z,72.84
2024-01-11T10:04:02.966Z,72.27
2024-01-11T10:04:54.357Z,72.32
2024-01-11T10:05:46.184Z,72.22
2024-01-11T10:06:39.296Z,72.09
2024-01-11T10:07:31.733Z,71.38
2024-01-11T10:08:23.021Z,71.44
2024-01-11T10:09:14.391Z,71.61
2024-01-11T10:10:05.544Z,71.45
2024-01-11T10:10:56.616Z,72.13
2024-01-11T10:11:47.944Z,71.38
2024-01-11T10:12:39.282Z,71.99
2024-01-11T10:13:31.836Z,72.15
2024-01-11T10:14:23.148Z,71.61
2024-01-11T10:15:14.861Z,71.79
2024-01-11T10:16:07.892Z,72.05
2024-01-11T10:16:58.986Z,71.46
2024-01-11T10:17:49.827Z,71.12
2024-01-11T10:18:41.068Z,71.39
2024-01-11T10:19:31.897Z,71.35
2024-01-11T10:20:25.533Z,71.30
2024-01-11T10:21:16.950Z,71.85
2024-01-11T10:22:08.159Z,71.57
2024-01-11T10:22:59.343Z,71.79
2024-01-11T10:23:51.054Z,72.15
2024-01-11T10:24:41.988Z,71.37
2024-01-11T10:25:32.928Z,71.88
2024-01-11T10:26:24.033Z,71.53
2024-01-11T10:27:14.935Z,70.81
2024-01-11T10:28:08.300Z,70.58
2024-01-11T10:29:01.328Z,71.10
2024-01-11T10:29:52.938Z,70.86
2024-01-11T10:30:46.894Z,70.69
2024-01-11T10:31:38.407Z,70.17
2024-01-11T10:32:30.138Z,70.17
2024-01-11T10:33:24.168Z,70.11
2024-01-11T10:34:16.048Z,70.01
2024-01-11T10:35:07.364Z,69.75
2024-01-11T10:35:58.890Z,69.74
2024-01-11T10:36:49.631Z,70.12
2024-01-11T10:37:41.028Z,70.50
2024-01-11T10:38:37.040Z,70.44
2024-01-11T10:39:28.732Z,70.34
2024-01-11T10:40:25.232Z,69.96
2024-01-11T10:41:20.915Z,70.01
2024-01-11T10:42:14.922Z,69.15
2024-01-11T10:43:12.377Z,69.80
2024-01-11T10:44:04.868Z,69.31
2024-01-11T10:44:59.639Z,69.25
2024-01-11T10:45:55.173Z,69.62
2024-01-11T10:46:47.179Z,69.63
2024-01-11T10:47:39.964Z,69.15
2024-01-11T10:48:35.223Z,70.09
2024-01-11T10:49:27.270Z,69.92
2024-01-11T10:50:19.226Z,69.93
2024-01-11T10:51:13.723Z,70.13
2024-01-11T10:52:07.242Z,69.94
2024-01-11T10:53:04.687Z,69.65
2024-01-11T10:53:57.243Z,69.81
2024-01-11T10:54:50.112Z,69.12
2024-01-11T10:55:43.333Z,69.65
2024-01-11T10:56:35.584Z,69.39
2024-01-11T10:57:28.466Z,69.91
2024-01-11T10:58:20.754Z,70.53
2024-01-11T10:59:13.054Z,70.48
2024-01-11T11:00:04.647Z,70.55
2024-01-11T11:00:56.567Z,70.58
2024-01-11T11:01:48.617Z,70.85
2024-01-11T11:02:40.545Z,70.13
2024-01-11T11:03:32.805Z,69.64
2024-01-11T11:04:24.796Z,70.66
2024-01-11T11:05:17.581Z,70.32
2024-01-11T11:06:10.020Z,70.13